Bom Jesus do Itabapoana, Brazil
Current Conditions -  °F | °C
As of 2:00 PM on Saturday 25 Oct 2014 (Local Time) from SBCP Reporting Station
Clear Clear  
Wind Chill: 86°   Ceiling: Unl
Heat Index: 87°   Visibility: 6mi
Dew Point: 64°   Wind: 14mph
Humidity: 48%   Direction: 100°E
Pressure: 29.88"   Gusts: NA
Location:  21.13°S, 41.68°W
Report Text: SBCP 251600Z 10012KT CAVOK 30/18 Q1012
Loading
Personal Weather Stations






























Interactive Weather Map
Tropical Storm Tracking
New forecast layout! Learn more

10-Day Weather Forecast

Advertisements
Track Severe Weather on mobile